createdAt,value
2023-03-29T00:02:32.067Z,3.15
2023-03-29T00:05:05.321Z,2.53
2023-03-29T00:07:33.813Z,2.45
2023-03-29T00:10:02.652Z,3.05
2023-03-29T00:12:31.440Z,2.40
2023-03-29T00:14:58.672Z,2.67
2023-03-29T00:17:26.188Z,2.33
2023-03-29T00:19:53.480Z,2.53
2023-03-29T00:22:21.600Z,3.13
2023-03-29T00:24:49.399Z,3.40
2023-03-29T00:27:16.938Z,3.67
2023-03-29T00:29:44.182Z,2.63
2023-03-29T00:32:11.432Z,3.25
2023-03-29T00:34:38.883Z,3.08
2023-03-29T00:37:09.574Z,2.58
2023-03-29T00:39:37.421Z,4.10
2023-03-29T00:42:04.764Z,3.50
2023-03-29T00:50:29.920Z,3.22
2023-03-29T00:53:05.193Z,2.72
2023-03-29T00:55:38.365Z,3.25
2023-03-29T00:58:10.326Z,4.20
2023-03-29T01:00:42.398Z,2.72
2023-03-29T01:03:14.418Z,4.10
2023-03-29T01:05:45.347Z,3.13
2023-03-29T01:08:18.477Z,2.83
2023-03-29T01:10:53.255Z,2.85
2023-03-29T01:13:27.472Z,4.63
2023-03-29T01:15:56.074Z,2.30
2023-03-29T01:18:23.385Z,6.22
2023-03-29T01:27:06.707Z,3.13
2023-03-29T01:29:39.703Z,4.10
2023-03-29T01:32:19.983Z,4.70
2023-03-29T01:37:34.440Z,3.05
2023-03-29T01:40:01.682Z,3.55
2023-03-29T01:50:38.494Z,2.97
2023-03-29T01:53:11.765Z,3.40
2023-03-29T01:55:41.016Z,1.90
2023-03-29T01:58:10.205Z,2.13
2023-03-29T02:00:38.837Z,2.72
2023-03-29T02:03:09.058Z,2.65
2023-03-29T02:05:38.134Z,2.78
2023-03-29T02:08:07.984Z,3.00
2023-03-29T02:10:35.589Z,3.70
2023-03-29T02:13:04.578Z,3.78
2023-03-29T02:15:33.973Z,4.22
2023-03-29T02:18:04.324Z,5.28
2023-03-29T02:20:39.283Z,3.65
2023-03-29T02:23:16.110Z,2.47
2023-03-29T02:25:45.826Z,2.17
2023-03-29T02:28:13.770Z,3.22
2023-03-29T02:33:28.304Z,3.05
2023-03-29T02:36:02.107Z,3.25
2023-03-29T02:38:30.035Z,2.33
2023-03-29T02:40:59.790Z,2.10
2023-03-29T02:43:28.481Z,3.40
2023-03-29T02:45:56.263Z,4.85
2023-03-29T02:48:25.779Z,3.65
2023-03-29T02:50:56.492Z,3.17
2023-03-29T02:53:28.764Z,2.50
2023-03-29T02:55:56.197Z,4.57
2023-03-29T02:58:26.802Z,3.70
2023-03-29T03:00:54.328Z,2.97
2023-03-29T03:03:22.307Z,2.20
2023-03-29T03:05:52.647Z,4.47
2023-03-29T03:08:20.789Z,3.33
2023-03-29T03:10:48.742Z,3.30
2023-03-29T03:13:16.683Z,3.30
2023-03-29T03:15:49.179Z,2.72
2023-03-29T03:18:16.997Z,4.55
2023-03-29T03:20:46.808Z,3.42
2023-03-29T03:23:14.179Z,3.25
2023-03-29T03:25:41.647Z,3.90
2023-03-29T03:28:08.976Z,2.95
2023-03-29T03:30:36.234Z,2.58
2023-03-29T03:33:23.525Z,3.53
2023-03-29T03:36:11.514Z,4.40
2023-03-29T03:38:39.111Z,2.80
2023-03-29T03:41:07.499Z,3.83
2023-03-29T03:43:35.537Z,2.42
2023-03-29T03:46:03.010Z,4.40
2023-03-29T03:48:30.912Z,2.33
2023-03-29T03:51:10.437Z,4.75
2023-03-29T03:53:38.209Z,2.92
2023-03-29T03:56:26.059Z,3.80
2023-03-29T03:59:13.147Z,3.75
2023-03-29T04:01:50.829Z,4.65
2023-03-29T04:04:21.380Z,3.13
2023-03-29T04:07:08.830Z,3.42
2023-03-29T04:09:55.946Z,3.88
2023-03-29T04:12:43.151Z,2.22
2023-03-29T04:15:12.325Z,3.53
2023-03-29T04:17:45.443Z,2.33
2023-03-29T04:20:32.590Z,4.45
2023-03-29T04:23:00.825Z,4.05
2023-03-29T04:25:29.926Z,2.67
2023-03-29T04:28:17.077Z,2.67
2023-03-29T04:31:03.464Z,2.28
2023-03-29T04:33:46.932Z,3.95
2023-03-29T04:36:16.265Z,3.30
2023-03-29T04:38:47.308Z,2.42
2023-03-29T04:41:15.830Z,2.63
2023-03-29T04:44:03.031Z,3.47
2023-03-29T04:46:32.622Z,3.30
2023-03-29T04:49:19.894Z,3.42
2023-03-29T04:51:51.024Z,3.33
2023-03-29T04:54:22.030Z,2.80
2023-03-29T04:57:09.557Z,2.30
2023-03-29T04:59:55.985Z,5.18
2023-03-29T05:02:44.683Z,1.95
2023-03-29T05:05:14.739Z,5.15
2023-03-29T05:07:42.958Z,4.10
2023-03-29T05:10:11.762Z,4.65
2023-03-29T05:12:39.912Z,2.25
2023-03-29T05:15:08.503Z,2.72
2023-03-29T05:17:36.668Z,3.88
2023-03-29T05:20:11.652Z,1.80
2023-03-29T05:22:40.573Z,1.92
2023-03-29T05:25:13.596Z,4.38
2023-03-29T05:27:43.579Z,2.88
2023-03-29T05:30:12.587Z,2.50
2023-03-29T05:32:48.324Z,1.90
2023-03-29T05:35:19.220Z,3.25
2023-03-29T05:37:47.506Z,3.30
2023-03-29T05:40:14.981Z,9.05
2023-03-29T05:43:03.054Z,1.55
2023-03-29T05:45:30.539Z,4.30
2023-03-29T05:47:58.405Z,3.03
2023-03-29T05:50:26.240Z,2.50
2023-03-29T05:52:55.525Z,2.88
2023-03-29T05:55:23.963Z,3.40
2023-03-29T05:57:51.838Z,2.22
2023-03-29T06:00:26.101Z,2.58
2023-03-29T06:03:17.694Z,1.67
2023-03-29T06:05:50.034Z,5.05
2023-03-29T06:08:18.451Z,2.42
2023-03-29T06:11:02.427Z,4.53
2023-03-29T06:13:52.054Z,4.93
2023-03-29T06:16:20.157Z,2.35
2023-03-29T06:18:48.235Z,2.50
2023-03-29T06:21:15.755Z,2.33
2023-03-29T06:23:43.491Z,2.17
2023-03-29T06:26:10.927Z,2.00
2023-03-29T06:28:39.510Z,3.40
2023-03-29T06:31:07.106Z,1.48
2023-03-29T06:33:39.119Z,2.28
2023-03-29T06:36:17.123Z,2.08
2023-03-29T06:38:46.204Z,1.42
2023-03-29T06:41:21.795Z,2.40
2023-03-29T06:44:09.220Z,3.28
2023-03-29T06:46:45.808Z,1.45
2023-03-29T06:49:15.038Z,3.75
2023-03-29T06:51:54.256Z,3.40
2023-03-29T06:54:21.733Z,2.15
2023-03-29T06:56:59.833Z,2.17
2023-03-29T06:59:29.136Z,1.77
2023-03-29T07:01:59.992Z,3.85
2023-03-29T07:04:46.330Z,1.98
2023-03-29T07:08:05.960Z,1.98
2023-03-29T07:10:45.989Z,2.30
2023-03-29T07:13:33.277Z,1.63
2023-03-29T07:16:04.236Z,6.95
2023-03-29T07:18:41.874Z,3.17
2023-03-29T07:21:13.518Z,2.13
2023-03-29T07:23:41.269Z,1.60
2023-03-29T07:26:08.929Z,2.25
2023-03-29T07:28:37.732Z,1.80
2023-03-29T07:31:08.154Z,2.30
2023-03-29T07:33:41.305Z,2.00
2023-03-29T07:36:10.311Z,2.72
2023-03-29T07:38:38.195Z,3.30
2023-03-29T07:41:12.614Z,1.50
2023-03-29T07:43:47.149Z,1.70
2023-03-29T07:46:18.013Z,2.95
2023-03-29T07:48:45.501Z,2.10
2023-03-29T07:51:15.468Z,3.10
2023-03-29T07:53:45.936Z,2.42
2023-03-29T07:56:30.419Z,2.22
2023-03-29T07:59:17.575Z,3.33
2023-03-29T08:01:50.543Z,1.70
2023-03-29T08:04:26.782Z,1.83
2023-03-29T08:07:17.689Z,2.42
2023-03-29T08:10:09.300Z,1.92
2023-03-29T08:12:52.613Z,2.30
2023-03-29T08:15:26.710Z,2.33
2023-03-29T08:17:54.781Z,2.42
2023-03-29T08:20:22.859Z,4.25
2023-03-29T08:22:55.067Z,1.90
2023-03-29T08:25:33.613Z,1.75
2023-03-29T08:28:01.216Z,3.03
2023-03-29T08:30:40.559Z,3.25
2023-03-29T08:33:09.088Z,2.30
2023-03-29T08:35:37.162Z,3.50
2023-03-29T08:38:24.392Z,2.65
2023-03-29T08:40:52.187Z,3.10
2023-03-29T08:48:36.837Z,1.85
2023-03-29T08:51:30.476Z,2.22
2023-03-29T08:54:02.795Z,2.72
2023-03-29T08:56:45.728Z,2.10
2023-03-29T08:59:29.253Z,4.40
2023-03-29T09:01:58.702Z,2.72
2023-03-29T09:04:30.701Z,2.53
2023-03-29T09:07:10.649Z,4.38
2023-03-29T09:09:43.377Z,2.30
2023-03-29T09:12:43.920Z,3.22
2023-03-29T09:15:20.606Z,2.38
2023-03-29T09:23:44.665Z,3.67
2023-03-29T09:29:26.381Z,2.63
2023-03-29T09:31:55.337Z,4.85
2023-03-29T09:34:29.460Z,3.28
2023-03-29T09:37:22.143Z,3.38
2023-03-29T09:39:53.327Z,3.85
2023-03-29T09:42:24.758Z,4.72
2023-03-29T09:44:54.766Z,3.60
2023-03-29T09:50:30.231Z,4.10
2023-03-29T09:52:59.798Z,4.72
2023-03-29T09:55:32.535Z,4.13
2023-03-29T09:58:13.497Z,3.10
2023-03-29T10:00:45.861Z,3.85
2023-03-29T10:03:23.352Z,4.15
2023-03-29T10:06:00.488Z,3.42
2023-03-29T10:08:31.495Z,5.50
2023-03-29T10:11:02.404Z,3.60
2023-03-29T10:13:32.511Z,4.07
2023-03-29T10:18:42.069Z,8.23
2023-03-29T10:21:17.662Z,5.72
2023-03-29T10:23:45.018Z,4.40
2023-03-29T10:26:25.488Z,5.70
2023-03-29T10:28:55.053Z,6.85
2023-03-29T10:31:23.681Z,6.43
2023-03-29T10:33:54.251Z,5.40
2023-03-29T10:36:22.701Z,6.18
2023-03-29T10:38:52.231Z,5.10
2023-03-29T10:41:22.014Z,5.50
2023-03-29T10:43:51.419Z,4.63
2023-03-29T10:49:06.399Z,4.50
2023-03-29T10:51:34.720Z,3.85
2023-03-29T10:54:03.631Z,5.53
2023-03-29T10:56:59.044Z,4.80
2023-03-29T11:05:15.933Z,5.38
2023-03-29T11:08:10.800Z,5.75
2023-03-29T11:16:20.360Z,5.97
2023-03-29T11:19:27.415Z,4.85
2023-03-29T11:22:34.293Z,4.72
2023-03-29T11:25:15.006Z,5.80
2023-03-29T11:30:35.399Z,6.43
2023-03-29T11:35:48.941Z,5.63
2023-03-29T11:38:23.786Z,5.22
2023-03-29T11:46:31.756Z,6.55
2023-03-29T11:49:04.835Z,4.93
2023-03-29T11:51:36.552Z,3.90
2023-03-29T11:56:45.383Z,6.45
2023-03-29T11:59:18.986Z,5.68
2023-03-29T12:01:52.355Z,4.93
2023-03-29T12:04:26.215Z,5.65
2023-03-29T12:07:14.235Z,6.05
2023-03-29T12:12:25.430Z,6.38
2023-03-29T12:15:04.389Z,6.88
2023-03-29T12:17:37.834Z,5.43
2023-03-29T12:22:47.556Z,9.02
2023-03-29T12:25:19.295Z,7.22
2023-03-29T12:30:47.162Z,7.72
2023-03-29T12:36:18.898Z,6.07
2023-03-29T12:39:11.113Z,6.72
2023-03-29T12:44:59.216Z,6.60
2023-03-29T12:47:34.473Z,7.57
2023-03-29T12:50:02.157Z,6.75
2023-03-29T12:52:35.226Z,6.30
2023-03-29T12:55:05.678Z,6.13
2023-03-29T12:57:42.973Z,7.13
2023-03-29T13:00:20.693Z,5.38
2023-03-29T13:05:31.363Z,7.43
2023-03-29T13:07:58.809Z,7.68
2023-03-29T13:13:17.991Z,8.73
2023-03-29T13:15:46.348Z,7.97
2023-03-29T13:21:17.525Z,6.75
2023-03-29T13:24:24.466Z,6.07
2023-03-29T13:29:55.709Z,8.05
2023-03-29T13:54:13.336Z,8.23
2023-03-29T13:57:02.192Z,8.13
2023-03-29T13:59:37.987Z,8.48
2023-03-29T14:02:06.704Z,6.55
2023-03-29T14:04:42.191Z,10.23
2023-03-29T14:07:12.930Z,10.02
2023-03-29T14:09:44.257Z,8.38
2023-03-29T14:12:13.806Z,8.27
2023-03-29T14:14:56.015Z,9.10
2023-03-29T14:17:26.095Z,9.02
2023-03-29T14:19:53.828Z,6.28
2023-03-29T14:22:21.774Z,8.90
2023-03-29T14:24:54.580Z,7.57
2023-03-29T14:27:22.399Z,9.13
2023-03-29T14:29:51.565Z,9.30
2023-03-29T14:32:27.690Z,8.05
2023-03-29T14:34:55.036Z,8.82
2023-03-29T14:37:25.563Z,10.10
2023-03-29T14:39:53.132Z,8.38
2023-03-29T14:42:25.500Z,7.50
2023-03-29T14:44:59.378Z,10.13
2023-03-29T14:47:29.887Z,9.93
2023-03-29T14:50:00.852Z,8.05
2023-03-29T14:52:31.302Z,8.25
2023-03-29T14:55:00.851Z,9.13
2023-03-29T14:57:33.509Z,9.73
2023-03-29T15:00:02.704Z,9.00
2023-03-29T15:02:34.085Z,8.75
2023-03-29T15:05:07.779Z,7.68
2023-03-29T15:07:38.101Z,9.90
2023-03-29T15:10:06.648Z,9.40
2023-03-29T15:12:34.391Z,9.45
2023-03-29T15:15:02.674Z,9.82
2023-03-29T15:17:47.645Z,8.35
2023-03-29T15:20:25.709Z,8.52
2023-03-29T15:23:04.846Z,9.13
2023-03-29T15:25:34.545Z,8.77
2023-03-29T15:28:01.979Z,10.85
2023-03-29T15:30:35.053Z,9.10
2023-03-29T15:33:20.111Z,9.68
2023-03-29T15:35:50.736Z,10.48
2023-03-29T15:38:19.772Z,11.02
2023-03-29T15:40:48.675Z,9.63
2023-03-29T15:43:15.964Z,7.93
2023-03-29T15:45:43.771Z,10.40
2023-03-29T15:48:16.597Z,11.00
2023-03-29T15:50:45.453Z,9.65
2023-03-29T15:53:15.772Z,9.65
2023-03-29T15:55:46.997Z,10.98
2023-03-29T15:58:16.907Z,11.90
2023-03-29T16:00:48.152Z,9.15
2023-03-29T16:03:16.453Z,12.57
2023-03-29T16:05:45.087Z,9.75
2023-03-29T16:08:13.472Z,11.05
2023-03-29T16:10:41.951Z,9.40
2023-03-29T16:13:13.599Z,12.25
2023-03-29T16:15:42.481Z,8.88
2023-03-29T16:18:09.969Z,8.73
2023-03-29T16:20:38.471Z,9.77
2023-03-29T16:23:09.718Z,10.82
2023-03-29T16:25:39.998Z,11.35
2023-03-29T16:28:09.382Z,10.23
2023-03-29T16:30:37.639Z,10.90
2023-03-29T16:33:08.742Z,9.18
2023-03-29T16:35:38.570Z,8.52
2023-03-29T16:38:06.864Z,9.20
2023-03-29T16:40:34.759Z,9.30
2023-03-29T16:43:02.999Z,10.65
2023-03-29T16:45:30.446Z,8.75
2023-03-29T16:47:57.791Z,11.90
2023-03-29T16:50:25.359Z,8.73
2023-03-29T16:52:53.833Z,9.77
2023-03-29T16:55:21.443Z,9.77
2023-03-29T16:57:52.237Z,7.75
2023-03-29T17:00:20.504Z,9.02
2023-03-29T17:02:51.600Z,9.93
2023-03-29T17:05:19.314Z,10.77
2023-03-29T17:07:47.156Z,8.88
2023-03-29T17:10:14.702Z,10.75
2023-03-29T17:12:42.027Z,8.23
2023-03-29T17:15:10.255Z,10.73
2023-03-29T17:17:38.869Z,11.60
2023-03-29T17:20:10.586Z,9.50
2023-03-29T17:22:38.977Z,11.98
2023-03-29T17:25:07.656Z,10.48
2023-03-29T17:27:35.826Z,11.25
2023-03-29T17:30:03.984Z,7.93
2023-03-29T17:32:32.507Z,10.20
2023-03-29T17:35:00.118Z,10.52
2023-03-29T17:37:29.133Z,9.18
2023-03-29T17:39:56.422Z,9.20
2023-03-29T17:42:23.713Z,10.10
2023-03-29T17:44:51.145Z,9.70
2023-03-29T17:47:18.396Z,11.98
2023-03-29T17:49:45.653Z,9.77
2023-03-29T17:52:12.942Z,11.02
2023-03-29T17:54:40.603Z,9.90
2023-03-29T17:57:07.954Z,11.60
2023-03-29T17:59:37.128Z,11.60
2023-03-29T18:02:06.760Z,11.18
2023-03-29T18:04:34.489Z,10.45
2023-03-29T18:07:01.942Z,11.23
2023-03-29T18:09:30.906Z,9.80
2023-03-29T18:11:58.389Z,9.43
2023-03-29T18:14:25.633Z,8.40
2023-03-29T18:16:53.041Z,10.52
2023-03-29T18:19:20.344Z,9.88
2023-03-29T18:21:47.934Z,12.07
2023-03-29T18:24:15.652Z,9.32
2023-03-29T18:26:42.942Z,11.88
2023-03-29T18:29:10.243Z,11.50
2023-03-29T18:31:37.592Z,9.30
2023-03-29T18:34:04.987Z,13.68
2023-03-29T18:36:32.560Z,9.70
2023-03-29T18:39:05.935Z,10.80
2023-03-29T18:41:34.980Z,13.10
2023-03-29T18:44:02.391Z,8.80
2023-03-29T18:46:31.453Z,12.43
2023-03-29T18:49:01.722Z,11.10
2023-03-29T18:51:29.615Z,10.35
2023-03-29T18:53:57.443Z,9.98
2023-03-29T18:56:24.899Z,12.45
2023-03-29T18:58:52.596Z,11.05
2023-03-29T19:01:20.022Z,11.30
2023-03-29T19:03:48.237Z,10.05
2023-03-29T19:06:15.768Z,10.55
2023-03-29T19:08:43.095Z,9.32
2023-03-29T19:11:14.468Z,11.77
2023-03-29T19:13:42.085Z,11.50
2023-03-29T19:16:09.632Z,13.18
2023-03-29T19:18:37.268Z,12.82
2023-03-29T19:21:04.555Z,9.95
2023-03-29T19:23:32.473Z,11.35
2023-03-29T19:26:03.006Z,12.65
2023-03-29T19:28:30.712Z,12.93
2023-03-29T19:31:00.534Z,12.07
2023-03-29T19:33:28.529Z,10.52
2023-03-29T19:35:55.953Z,12.77
2023-03-29T19:38:23.349Z,11.57
2023-03-29T19:40:51.893Z,12.48
2023-03-29T19:43:20.914Z,12.32
2023-03-29T19:45:49.575Z,13.95
2023-03-29T19:50:47.984Z,12.88
2023-03-29T19:53:15.307Z,14.63
2023-03-29T19:55:43.648Z,15.65
2023-03-29T19:58:11.054Z,15.45
2023-03-29T20:00:39.119Z,11.77
2023-03-29T20:03:10.167Z,16.45
2023-03-29T20:05:39.001Z,16.17
2023-03-29T20:08:07.260Z,13.07
2023-03-29T20:10:35.809Z,11.98
2023-03-29T20:13:03.452Z,13.70
2023-03-29T20:15:30.864Z,13.88
2023-03-29T20:17:59.865Z,11.98
2023-03-29T20:20:27.786Z,13.80
2023-03-29T20:22:58.671Z,12.98
2023-03-29T20:25:26.079Z,17.60
2023-03-29T20:27:53.587Z,15.20
2023-03-29T20:30:20.963Z,12.02
2023-03-29T20:32:48.356Z,13.65
2023-03-29T20:35:15.992Z,15.38
2023-03-29T20:37:43.252Z,12.82
2023-03-29T20:40:11.550Z,13.00
2023-03-29T20:42:39.871Z,11.07
2023-03-29T20:45:08.215Z,16.33
2023-03-29T20:47:55.603Z,16.00
2023-03-29T20:50:30.551Z,20.52
2023-03-29T20:53:02.348Z,15.40
2023-03-29T20:57:58.502Z,15.15
2023-03-29T21:00:27.561Z,15.57
2023-03-29T21:02:55.565Z,15.13
2023-03-29T21:05:23.148Z,14.43
2023-03-29T21:07:50.462Z,15.13
2023-03-29T21:10:17.832Z,12.10
2023-03-29T21:12:45.131Z,14.70
2023-03-29T21:15:13.754Z,12.02
2023-03-29T21:17:41.543Z,15.75
2023-03-29T21:20:10.487Z,16.27
2023-03-29T21:22:39.446Z,16.98
2023-03-29T21:25:09.265Z,14.00
2023-03-29T21:27:37.657Z,15.82
2023-03-29T21:30:06.717Z,12.68
2023-03-29T21:32:34.676Z,14.90
2023-03-29T21:35:02.030Z,15.40
2023-03-29T21:37:30.566Z,12.13
2023-03-29T21:39:58.156Z,14.43
2023-03-29T21:42:25.832Z,11.85
2023-03-29T21:44:53.108Z,12.70
2023-03-29T21:47:20.637Z,12.75
2023-03-29T21:49:47.913Z,12.80
2023-03-29T21:52:15.214Z,12.30
2023-03-29T21:54:42.513Z,11.70
2023-03-29T21:57:09.782Z,11.60
2023-03-29T21:59:37.057Z,12.63
2023-03-29T22:02:04.428Z,12.68
2023-03-29T22:04:37.220Z,11.93
2023-03-29T22:07:06.208Z,13.63
2023-03-29T22:09:35.341Z,12.27
2023-03-29T22:12:04.051Z,13.00
2023-03-29T22:14:35.219Z,16.20
2023-03-29T22:17:06.513Z,12.27
2023-03-29T22:19:39.393Z,16.17
2023-03-29T22:22:13.901Z,14.02
2023-03-29T22:24:42.438Z,16.70
2023-03-29T22:27:10.816Z,15.60
2023-03-29T22:29:38.169Z,14.27
2023-03-29T22:32:06.190Z,16.23
2023-03-29T22:34:33.727Z,12.95
2023-03-29T22:37:01.173Z,14.27
2023-03-29T22:39:28.826Z,14.18
2023-03-29T22:41:56.220Z,14.35
2023-03-29T22:44:23.527Z,18.48
2023-03-29T22:46:51.194Z,15.57
2023-03-29T22:49:18.471Z,13.68
2023-03-29T22:51:46.209Z,15.77
2023-03-29T22:54:13.757Z,17.02
2023-03-29T22:56:41.515Z,18.10
2023-03-29T22:59:08.845Z,16.17
2023-03-29T23:01:36.111Z,14.98
2023-03-29T23:04:04.528Z,17.13
2023-03-29T23:06:31.794Z,16.88
2023-03-29T23:08:59.018Z,19.00
2023-03-29T23:11:26.731Z,17.65
2023-03-29T23:13:54.257Z,16.13
2023-03-29T23:16:21.729Z,20.30
2023-03-29T23:18:49.337Z,17.95
2023-03-29T23:21:16.917Z,18.02
2023-03-29T23:23:44.971Z,18.75
2023-03-29T23:26:12.290Z,18.13
2023-03-29T23:28:41.159Z,23.35
2023-03-29T23:31:11.725Z,22.30
2023-03-29T23:33:41.392Z,23.77
2023-03-29T23:36:11.909Z,24.52
2023-03-29T23:38:40.024Z,22.30
2023-03-29T23:41:10.543Z,22.90
2023-03-29T23:43:40.765Z,22.48
2023-03-29T23:46:10.830Z,22.15
2023-03-29T23:48:38.861Z,21.90
2023-03-29T23:51:08.228Z,26.83
2023-03-29T23:53:35.478Z,23.23
2023-03-29T23:56:04.144Z,23.17
2023-03-29T23:58:33.902Z,26.33
